createdAt,value
2019-03-24T00:01:53.978Z,31.60
2019-03-24T00:04:42.843Z,35.92
2019-03-24T00:07:32.095Z,34.48
2019-03-24T00:10:21.158Z,33.80
2019-03-24T00:13:10.463Z,35.73
2019-03-24T00:15:59.803Z,25.82
2019-03-24T00:18:48.202Z,27.05
2019-03-24T00:21:36.808Z,32.20
2019-03-24T00:24:25.807Z,30.35
2019-03-24T00:27:14.934Z,42.90
2019-03-24T00:30:07.138Z,39.88
2019-03-24T00:32:55.868Z,39.63
2019-03-24T00:35:45.343Z,39.85
2019-03-24T00:38:34.163Z,30.65
2019-03-24T00:41:23.248Z,21.55
2019-03-24T00:44:12.600Z,33.75
2019-03-24T00:47:01.825Z,30.35
2019-03-24T00:49:50.935Z,28.55
2019-03-24T00:52:40.305Z,42.60
2019-03-24T00:55:29.006Z,39.95
2019-03-24T00:58:18.144Z,38.53
2019-03-24T01:01:07.545Z,31.50
2019-03-24T01:03:56.870Z,34.13
2019-03-24T01:06:47.868Z,28.57
2019-03-24T01:09:37.251Z,27.75
2019-03-24T01:12:26.801Z,38.50
2019-03-24T01:15:15.985Z,30.60
2019-03-24T01:18:05.165Z,29.87
2019-03-24T01:20:54.419Z,27.58
2019-03-24T01:23:43.699Z,28.70
2019-03-24T01:26:33.248Z,24.02
2019-03-24T01:29:21.867Z,41.60
2019-03-24T01:32:11.158Z,27.93
2019-03-24T01:35:00.309Z,34.35
2019-03-24T01:37:49.554Z,38.70
2019-03-24T01:40:38.804Z,24.23
2019-03-24T01:43:27.775Z,36.48
2019-03-24T01:46:16.654Z,35.45
2019-03-24T01:49:05.591Z,33.15
2019-03-24T01:51:54.565Z,27.70
2019-03-24T01:54:43.844Z,32.45
2019-03-24T01:57:33.006Z,26.75
2019-03-24T02:00:22.220Z,37.85
2019-03-24T02:03:11.178Z,29.32
2019-03-24T02:06:00.795Z,29.95
2019-03-24T02:08:49.449Z,29.15
2019-03-24T02:11:38.208Z,31.95
2019-03-24T02:14:27.645Z,28.67
2019-03-24T02:17:17.058Z,39.78
2019-03-24T02:20:08.071Z,33.65
2019-03-24T02:22:57.166Z,42.73
2019-03-24T02:25:46.782Z,26.45
2019-03-24T02:28:35.426Z,26.85
2019-03-24T02:31:25.046Z,29.70
2019-03-24T02:34:14.562Z,27.52
2019-03-24T02:37:03.792Z,19.52
2019-03-24T02:39:52.855Z,21.62
2019-03-24T02:42:42.324Z,52.88
2019-03-24T02:45:31.042Z,38.67
2019-03-24T02:48:20.255Z,23.20
2019-03-24T02:51:09.220Z,21.82
2019-03-24T02:53:58.480Z,35.40
2019-03-24T02:56:47.521Z,26.60
2019-03-24T02:59:37.055Z,34.00
2019-03-24T03:02:25.983Z,17.60
2019-03-24T03:05:16.477Z,26.00
2019-03-24T03:08:05.951Z,32.10
2019-03-24T03:10:55.269Z,29.48
2019-03-24T03:13:44.599Z,37.98
2019-03-24T03:16:38.885Z,35.05
2019-03-24T03:19:24.677Z,36.05
2019-03-24T03:22:13.835Z,25.25
2019-03-24T03:25:04.169Z,24.23
2019-03-24T03:27:53.167Z,22.22
2019-03-24T03:30:42.367Z,25.52
2019-03-24T03:33:31.464Z,26.42
2019-03-24T03:36:21.134Z,33.58
2019-03-24T03:39:10.682Z,27.95
2019-03-24T03:41:59.758Z,24.32
2019-03-24T03:44:49.628Z,33.30
2019-03-24T03:47:38.065Z,44.23
2019-03-24T03:50:27.513Z,38.60
2019-03-24T03:53:16.845Z,20.68
2019-03-24T03:56:06.091Z,23.00
2019-03-24T03:58:55.526Z,31.60
2019-03-24T04:01:45.153Z,29.65
2019-03-24T04:04:35.557Z,35.28
2019-03-24T04:07:24.907Z,33.43
2019-03-24T04:10:13.873Z,22.65
2019-03-24T04:13:02.605Z,27.45
2019-03-24T04:15:51.488Z,28.17
2019-03-24T04:18:41.106Z,30.57
2019-03-24T04:21:30.747Z,22.77
2019-03-24T04:24:19.888Z,35.08
2019-03-24T04:27:08.574Z,23.52
2019-03-24T04:29:57.815Z,34.50
2019-03-24T04:32:47.216Z,25.12
2019-03-24T04:35:36.772Z,36.15
2019-03-24T04:38:26.477Z,38.73
2019-03-24T04:41:15.018Z,33.33
2019-03-24T04:44:04.393Z,26.07
2019-03-24T04:46:53.429Z,20.43
2019-03-24T04:49:42.725Z,39.13
2019-03-24T04:52:31.975Z,23.75
2019-03-24T04:55:20.563Z,36.00
2019-03-24T04:58:09.710Z,26.77
2019-03-24T05:00:58.820Z,21.25
2019-03-24T05:03:48.661Z,25.70
2019-03-24T05:06:38.205Z,20.72
2019-03-24T05:09:28.009Z,29.55
2019-03-24T05:12:16.776Z,25.52
2019-03-24T05:15:06.967Z,32.93
2019-03-24T05:17:55.527Z,23.60
2019-03-24T05:20:44.787Z,28.35
2019-03-24T05:23:34.243Z,27.47
2019-03-24T05:26:23.337Z,28.02
2019-03-24T05:29:12.474Z,20.85
2019-03-24T05:32:01.561Z,32.48
2019-03-24T05:34:50.648Z,34.85
2019-03-24T05:37:40.099Z,26.27
2019-03-24T05:40:29.469Z,27.37
2019-03-24T05:43:18.589Z,40.90
2019-03-24T05:46:07.922Z,20.02
2019-03-24T05:48:57.245Z,29.32
2019-03-24T05:51:46.839Z,31.57
2019-03-24T05:54:35.677Z,29.12
2019-03-24T05:57:25.193Z,28.77
2019-03-24T06:00:14.752Z,28.85
2019-03-24T06:03:04.345Z,23.87
2019-03-24T06:05:53.912Z,24.45
2019-03-24T06:08:42.658Z,24.32
2019-03-24T06:11:31.955Z,31.95
2019-03-24T06:14:21.209Z,24.45
2019-03-24T06:17:10.787Z,24.23
2019-03-24T06:19:59.989Z,27.80
2019-03-24T06:22:49.123Z,27.63
2019-03-24T06:25:38.494Z,26.95
2019-03-24T06:28:27.977Z,26.27
2019-03-24T06:31:17.313Z,24.25
2019-03-24T06:34:06.615Z,25.08
2019-03-24T06:36:56.193Z,23.02
2019-03-24T06:39:44.935Z,17.92
2019-03-24T06:42:33.727Z,22.40
2019-03-24T06:45:28.271Z,19.92
2019-03-24T06:48:13.884Z,25.37
2019-03-24T06:51:03.081Z,25.77
2019-03-24T07:05:07.709Z,23.30
2019-03-24T07:07:56.578Z,23.00
2019-03-24T07:10:45.725Z,18.15
2019-03-24T07:19:11.190Z,29.80
2019-03-24T07:22:00.262Z,28.10
2019-03-24T07:24:49.779Z,20.95
2019-03-24T07:27:38.871Z,14.00
2019-03-24T07:30:28.313Z,26.48
2019-03-24T07:33:17.893Z,43.42
2019-03-24T07:36:06.936Z,29.45
2019-03-24T07:38:56.226Z,28.02
2019-03-24T07:41:44.965Z,16.75
2019-03-24T07:44:34.358Z,22.77
2019-03-24T07:47:23.277Z,30.68
2019-03-24T07:50:13.103Z,25.77
2019-03-24T07:53:02.124Z,22.50
2019-03-24T07:55:51.536Z,22.30
2019-03-24T07:58:40.415Z,25.10
2019-03-24T08:01:28.872Z,28.85
2019-03-24T08:04:18.220Z,25.23
2019-03-24T08:07:07.649Z,30.17
2019-03-24T08:09:57.268Z,25.20
2019-03-24T08:12:46.439Z,27.93
2019-03-24T08:15:36.037Z,18.82
2019-03-24T08:18:29.845Z,27.60
2019-03-24T08:21:15.398Z,20.60
2019-03-24T08:24:04.646Z,18.12
2019-03-24T08:26:54.029Z,22.67
2019-03-24T08:29:43.396Z,17.85
2019-03-24T08:32:32.263Z,18.82
2019-03-24T08:35:21.639Z,27.98
2019-03-24T08:38:10.699Z,20.68
2019-03-24T08:41:00.461Z,22.32
2019-03-24T08:43:49.622Z,20.68
2019-03-24T08:46:38.911Z,16.97
2019-03-24T08:49:28.250Z,29.42
2019-03-24T08:52:17.646Z,20.72
2019-03-24T08:55:07.655Z,25.37
2019-03-24T08:57:56.060Z,26.73
2019-03-24T09:00:45.658Z,30.35
2019-03-24T09:03:34.997Z,22.75
2019-03-24T09:06:25.324Z,19.65
2019-03-24T09:09:14.803Z,31.75
2019-03-24T09:12:03.558Z,18.55
2019-03-24T09:14:52.454Z,21.00
2019-03-24T09:17:41.683Z,18.00
2019-03-24T09:20:41.219Z,23.60
2019-03-24T09:23:22.036Z,13.78
2019-03-24T09:26:11.430Z,16.20
2019-03-24T09:29:00.667Z,20.80
2019-03-24T09:31:50.276Z,19.57
2019-03-24T09:34:40.586Z,12.18
2019-03-24T09:37:29.746Z,20.05
2019-03-24T09:40:34.574Z,13.43
2019-03-24T09:43:23.855Z,18.48
2019-03-24T09:46:13.032Z,17.45
2019-03-24T09:49:03.349Z,14.58
2019-03-24T09:51:53.084Z,14.23
2019-03-24T09:54:42.356Z,22.45
2019-03-24T09:57:31.687Z,20.65
2019-03-24T10:00:21.103Z,14.45
2019-03-24T10:03:10.219Z,24.25
2019-03-24T10:05:59.547Z,19.48
2019-03-24T10:08:48.074Z,15.98
2019-03-24T10:11:37.252Z,18.52
2019-03-24T10:14:26.523Z,15.48
2019-03-24T10:17:16.001Z,19.37
2019-03-24T10:20:05.860Z,18.30
2019-03-24T10:22:54.380Z,21.02
2019-03-24T10:25:43.093Z,20.08
2019-03-24T10:28:32.038Z,18.20
2019-03-24T10:31:21.340Z,17.75
2019-03-24T10:34:10.261Z,16.52
2019-03-24T10:36:59.378Z,14.55
2019-03-24T10:39:48.716Z,13.48
2019-03-24T10:42:38.378Z,20.48
2019-03-24T10:45:28.089Z,18.35
2019-03-24T10:48:17.132Z,20.25
2019-03-24T10:51:06.624Z,17.00
2019-03-24T10:53:55.990Z,22.62
2019-03-24T10:56:45.664Z,14.55
2019-03-24T10:59:34.955Z,17.42
2019-03-24T11:02:24.755Z,27.07
2019-03-24T11:05:14.347Z,13.48
2019-03-24T11:08:04.943Z,16.17
2019-03-24T11:10:54.389Z,14.50
2019-03-24T11:13:43.807Z,16.82
2019-03-24T11:16:33.519Z,9.83
2019-03-24T11:19:22.576Z,15.43
2019-03-24T11:22:12.088Z,18.17
2019-03-24T11:25:00.932Z,17.75
2019-03-24T11:27:51.484Z,19.25
2019-03-24T11:30:40.695Z,14.53
2019-03-24T11:33:30.063Z,16.50
2019-03-24T11:36:19.150Z,10.40
2019-03-24T11:39:09.113Z,13.80
2019-03-24T11:41:58.485Z,13.93
2019-03-24T11:44:47.874Z,10.32
2019-03-24T11:47:37.030Z,13.70
2019-03-24T11:50:26.623Z,15.38
2019-03-24T11:53:16.081Z,17.82
2019-03-24T11:56:05.108Z,22.20
2019-03-24T11:58:53.945Z,15.95
2019-03-24T12:01:44.280Z,16.12
2019-03-24T12:04:34.184Z,8.30
2019-03-24T12:07:22.742Z,14.43
2019-03-24T12:10:14.048Z,13.30
2019-03-24T12:13:03.060Z,12.55
2019-03-24T12:15:52.375Z,15.93
2019-03-24T12:18:41.343Z,12.33
2019-03-24T12:21:30.696Z,18.00
2019-03-24T12:24:19.741Z,10.98
2019-03-24T12:27:08.862Z,11.10
2019-03-24T12:29:58.124Z,8.93
2019-03-24T12:32:47.096Z,15.00
2019-03-24T12:35:35.936Z,18.15
2019-03-24T12:38:24.696Z,8.05
2019-03-24T12:41:13.655Z,11.28
2019-03-24T12:44:03.617Z,11.08
2019-03-24T12:46:53.321Z,15.30
2019-03-24T12:49:43.034Z,6.37
2019-03-24T12:52:32.776Z,6.40
2019-03-24T12:55:21.875Z,11.55
2019-03-24T12:58:11.330Z,17.02
2019-03-24T13:01:00.488Z,14.10
2019-03-24T13:03:48.987Z,10.30
2019-03-24T13:06:38.314Z,8.58
2019-03-24T13:09:27.165Z,11.48
2019-03-24T13:12:16.761Z,8.00
2019-03-24T13:15:10.602Z,7.58
2019-03-24T13:18:00.937Z,7.10
2019-03-24T13:20:50.905Z,8.38
2019-03-24T13:23:40.319Z,9.55
2019-03-24T13:26:29.339Z,7.15
2019-03-24T13:29:17.977Z,7.95
2019-03-24T13:32:07.392Z,6.50
2019-03-24T13:34:56.749Z,9.45
2019-03-24T13:37:46.040Z,5.78
2019-03-24T13:40:35.151Z,9.15
2019-03-24T13:43:24.343Z,8.00
2019-03-24T13:46:13.132Z,10.60
2019-03-24T13:49:02.784Z,10.82
2019-03-24T13:51:52.261Z,11.05
2019-03-24T13:54:41.559Z,7.35
2019-03-24T13:57:30.939Z,7.53
2019-03-24T14:00:21.499Z,13.08
2019-03-24T14:03:10.866Z,7.30
2019-03-24T14:06:00.135Z,9.50
2019-03-24T14:08:49.857Z,8.13
2019-03-24T14:11:39.251Z,12.05
2019-03-24T14:14:28.985Z,7.22
2019-03-24T14:17:18.528Z,8.20
2019-03-24T14:20:09.045Z,11.88
2019-03-24T14:22:57.636Z,10.60
2019-03-24T14:25:46.675Z,8.70
2019-03-24T14:28:35.540Z,10.45
2019-03-24T14:31:25.006Z,11.15
2019-03-24T14:34:14.271Z,10.82
2019-03-24T14:37:03.029Z,8.93
2019-03-24T14:39:52.194Z,15.55
2019-03-24T14:42:41.356Z,7.58
2019-03-24T14:45:30.830Z,9.43
2019-03-24T14:48:19.897Z,7.72
2019-03-24T14:51:08.824Z,11.65
2019-03-24T14:53:57.350Z,14.43
2019-03-24T14:56:46.067Z,11.00
2019-03-24T14:59:35.357Z,15.85
2019-03-24T15:02:24.293Z,8.05
2019-03-24T15:05:14.057Z,10.03
2019-03-24T15:08:07.142Z,14.38
2019-03-24T15:10:56.411Z,11.25
2019-03-24T15:13:45.534Z,16.52
2019-03-24T15:16:34.814Z,15.03
2019-03-24T15:19:23.688Z,10.53
2019-03-24T15:22:12.571Z,15.90
2019-03-24T15:25:01.538Z,13.90
2019-03-24T15:27:50.795Z,13.22
2019-03-24T15:30:39.866Z,10.20
2019-03-24T15:33:29.450Z,14.30
2019-03-24T15:36:18.296Z,20.80
2019-03-24T15:39:10.061Z,11.12
2019-03-24T15:41:58.785Z,13.48
2019-03-24T15:44:47.406Z,16.45
2019-03-24T15:47:36.402Z,12.80
2019-03-24T15:50:25.731Z,12.80
2019-03-24T15:53:15.464Z,12.18
2019-03-24T15:56:04.848Z,16.45
2019-03-24T15:58:54.192Z,13.10
2019-03-24T16:01:43.189Z,16.17
2019-03-24T16:04:32.730Z,18.92
2019-03-24T16:07:21.928Z,12.60
2019-03-24T16:10:13.077Z,15.40
2019-03-24T16:13:02.179Z,13.18
2019-03-24T16:15:51.130Z,13.03
2019-03-24T16:18:40.515Z,28.67
2019-03-24T16:21:32.270Z,12.82
2019-03-24T16:24:21.608Z,17.85
2019-03-24T16:27:10.866Z,13.35
2019-03-24T16:30:00.320Z,19.10
2019-03-24T16:32:49.573Z,15.72
2019-03-24T16:35:39.322Z,20.72
2019-03-24T16:38:28.744Z,10.63
2019-03-24T16:41:17.575Z,10.93
2019-03-24T16:44:07.625Z,22.85
2019-03-24T16:46:56.471Z,18.30
2019-03-24T16:49:46.060Z,14.63
2019-03-24T16:52:36.698Z,16.37
2019-03-24T16:55:25.721Z,19.15
2019-03-24T16:58:14.802Z,14.90
2019-03-24T17:01:03.651Z,17.67
2019-03-24T17:03:52.655Z,14.45
2019-03-24T17:06:42.189Z,21.20
2019-03-24T17:09:31.627Z,20.50
2019-03-24T17:12:20.565Z,23.12
2019-03-24T17:15:10.976Z,21.50
2019-03-24T17:17:59.636Z,14.25
2019-03-24T17:20:48.960Z,18.65
2019-03-24T17:23:38.019Z,11.25
2019-03-24T17:26:27.102Z,13.83
2019-03-24T17:29:16.876Z,24.52
2019-03-24T17:32:06.241Z,26.62
2019-03-24T17:34:55.248Z,28.90
2019-03-24T17:37:44.037Z,24.18
2019-03-24T17:40:38.762Z,19.70
2019-03-24T17:43:23.821Z,21.55
2019-03-24T17:46:12.887Z,15.83
2019-03-24T17:49:01.746Z,16.95
2019-03-24T17:52:00.380Z,26.23
2019-03-24T17:54:41.778Z,23.18
2019-03-24T17:57:30.966Z,20.65
2019-03-24T18:00:43.291Z,17.05
2019-03-24T18:03:31.787Z,13.30
2019-03-24T18:06:21.794Z,20.62
2019-03-24T18:09:10.538Z,17.42
2019-03-24T18:11:59.860Z,15.78
2019-03-24T18:14:48.800Z,31.10
2019-03-24T18:17:38.191Z,15.98
2019-03-24T18:20:35.366Z,14.95
2019-03-24T18:23:24.727Z,14.25
2019-03-24T18:26:14.308Z,21.27
2019-03-24T18:29:03.458Z,19.27
2019-03-24T18:31:52.349Z,24.35
2019-03-24T18:34:41.360Z,15.58
2019-03-24T18:37:30.777Z,32.35
2019-03-24T18:40:20.466Z,31.40
2019-03-24T18:43:09.100Z,10.28
2019-03-24T18:45:58.233Z,29.67
2019-03-24T18:48:47.530Z,31.27
2019-03-24T18:51:36.698Z,42.45
2019-03-24T18:54:25.854Z,24.87
2019-03-24T18:57:14.723Z,13.40
2019-03-24T19:00:08.795Z,20.45
2019-03-24T19:02:57.872Z,11.95
2019-03-24T19:05:46.675Z,16.40
2019-03-24T19:08:36.208Z,15.60
2019-03-24T19:11:25.736Z,17.65
2019-03-24T19:14:15.271Z,6.80
2019-03-24T19:17:05.037Z,17.02
2019-03-24T19:19:53.558Z,8.53
2019-03-24T19:22:43.050Z,25.57
2019-03-24T19:25:32.399Z,19.40
2019-03-24T19:28:21.305Z,11.60
2019-03-24T19:31:10.129Z,22.60
2019-03-24T19:33:59.525Z,17.10
2019-03-24T19:36:50.131Z,25.62
2019-03-24T19:39:39.116Z,15.55
2019-03-24T19:42:28.567Z,14.00
2019-03-24T19:45:17.685Z,30.62
2019-03-24T19:48:07.318Z,13.58
2019-03-24T19:50:56.294Z,14.07
2019-03-24T19:53:45.037Z,15.30
2019-03-24T19:56:33.557Z,12.15
2019-03-24T19:59:22.240Z,15.88
2019-03-24T20:02:11.615Z,8.38
2019-03-24T20:05:01.082Z,12.93
2019-03-24T20:07:50.660Z,10.68
2019-03-24T20:10:39.767Z,11.93
2019-03-24T20:13:28.794Z,6.72
2019-03-24T20:16:17.212Z,4.25
2019-03-24T20:19:06.824Z,12.93
2019-03-24T20:21:55.488Z,8.28
2019-03-24T20:24:44.888Z,11.95
2019-03-24T20:27:33.918Z,9.45
2019-03-24T20:30:22.871Z,15.20
2019-03-24T20:33:12.247Z,10.80
2019-03-24T20:36:01.268Z,22.17
2019-03-24T20:38:50.785Z,14.40
2019-03-24T20:41:39.898Z,13.20
2019-03-24T20:44:29.121Z,9.00
2019-03-24T20:47:18.075Z,13.98
2019-03-24T20:50:08.758Z,12.75
2019-03-24T20:53:04.152Z,15.48
2019-03-24T20:55:48.524Z,17.25
2019-03-24T20:58:38.040Z,12.60
2019-03-24T21:01:27.446Z,8.30
2019-03-24T21:04:16.772Z,20.12
2019-03-24T21:07:08.260Z,11.95
2019-03-24T21:09:57.049Z,14.93
2019-03-24T21:12:46.634Z,17.62
2019-03-24T21:15:35.498Z,24.05
2019-03-24T21:18:24.957Z,15.32
2019-03-24T21:21:15.615Z,11.20
2019-03-24T21:24:04.929Z,13.00
2019-03-24T21:26:55.724Z,13.30
2019-03-24T21:29:45.007Z,12.18
2019-03-24T21:32:34.375Z,19.32
2019-03-24T21:35:23.403Z,13.53
2019-03-24T21:38:13.346Z,15.08
2019-03-24T21:41:02.540Z,9.48
2019-03-24T21:43:51.973Z,11.50
2019-03-24T21:46:40.999Z,19.15
2019-03-24T21:49:30.235Z,17.32
2019-03-24T21:52:18.760Z,22.75
2019-03-24T21:55:08.432Z,10.28
2019-03-24T21:57:58.099Z,12.75
2019-03-24T22:00:47.488Z,13.55
2019-03-24T22:03:36.553Z,18.23
2019-03-24T22:06:26.015Z,12.58
2019-03-24T22:09:15.513Z,17.75
2019-03-24T22:12:05.188Z,23.30
2019-03-24T22:14:55.063Z,10.25
2019-03-24T22:17:44.427Z,13.10
2019-03-24T22:20:33.513Z,31.60
2019-03-24T22:23:22.978Z,9.85
2019-03-24T22:26:11.866Z,11.78
2019-03-24T22:29:01.502Z,13.00
2019-03-24T22:31:50.770Z,12.58
2019-03-24T22:34:40.042Z,11.53
2019-03-24T22:37:29.040Z,14.73
2019-03-24T22:40:18.076Z,11.85
2019-03-24T22:43:07.451Z,10.90
2019-03-24T22:45:56.272Z,15.58
2019-03-24T22:48:45.680Z,23.10
2019-03-24T22:51:34.844Z,6.87
2019-03-24T22:54:24.215Z,15.93
2019-03-24T22:57:13.327Z,8.48
2019-03-24T23:00:02.554Z,16.57
2019-03-24T23:02:52.034Z,13.15
2019-03-24T23:05:40.953Z,15.48
2019-03-24T23:08:30.566Z,14.25
2019-03-24T23:11:19.870Z,7.97
2019-03-24T23:14:09.304Z,14.25
2019-03-24T23:16:58.333Z,17.17
2019-03-24T23:19:47.843Z,6.87
2019-03-24T23:22:36.929Z,9.58
2019-03-24T23:25:26.285Z,10.50
2019-03-24T23:28:15.251Z,11.30
2019-03-24T23:31:04.924Z,15.08
2019-03-24T23:33:53.453Z,10.90
2019-03-24T23:36:43.051Z,13.58
2019-03-24T23:39:32.118Z,11.95
2019-03-24T23:42:21.416Z,13.80
2019-03-24T23:45:11.471Z,18.42
2019-03-24T23:48:00.355Z,11.80
2019-03-24T23:50:50.078Z,13.55
2019-03-24T23:53:38.667Z,14.20
2019-03-24T23:56:28.259Z,10.15
2019-03-24T23:59:17.302Z,8.70
